Terminal Aerodrome Forecast
Issued by NWS Shreveport, LA

Home | Current Version | Previous Version | Text Only | Print | Product List | Glossary On
Versions: 1 2 3 4 5 6 7 8 9 10 11 12
000
FTUS44 KSHV 281700 RRA
TAFTYR
TAF
KTYR 281754Z 2818/2918 20015G21KT P6SM SCT040 SCT250
     FM282000 19012G19KT P6SM BKN045 BKN250
     FM290000 17012KT P6SM BKN045 BKN250
     FM290400 18013KT P6SM FEW025 OVC040
      TEMPO 2906/2909 BKN015 BKN030
     FM290900 19013KT P6SM BKN015 OVC025
     FM291500 20017G23KT P6SM SCT025 BKN045=

USA.gov is the U.S. government's official web portal to all federal, state and local government web resources and services.